Hillside, Illinois
Current Conditions -  °F | °C
As of 8:51 PM on Friday 19 Dec 2014 (Local Time) from KORD Reporting Station
Overcast Overcast  
Wind Chill: 25°   Ceiling: 2500
Heat Index: 30°   Visibility: 10mi
Dew Point: 21°   Wind: 5mph
Humidity: 69%   Direction: 360°N
Pressure: 30.26"   Gusts: NA
Location:  41.87°N, 87.9°W
Report Text: KORD 200251Z 36004KT 10SM OVC025 M01/M06 A3026 RMK AO2 SLP257 T10111061 56006
Loading
Personal Weather Stations






























Interactive Weather Map New forecast layout! Learn more

10-Day Weather Forecast

Advertisements
Track Severe Weather on mobile